ADDS METAR Data INFO
IDs: Format: Raw Decoded Include TAF

Data at: 2017 UTC 18 Jul 2018

KTPA 182010Z 24008KT 10SM FEW030 SCT045 BKN110 OVC200 30/23 A3001 RMK AO2 LTG DSNT ALQDS CB DSNT NE-SE T03000233
KTPA 181953Z 24007KT 10SM VCTS SCT026TCU SCT040 BKN110 OVC200 30/24 A3002 RMK AO2 LTG DSNT ALQDS RAE43 TSB1856 SLP164 OCNL LTGIC DSNT NE-SE CB DSNT NE-SE MOV NE TCU ALQDS P0000 T03000239
KTPA 181944Z 23008KT 10SM VCTS SCT026TCU SCT040 BKN110 OVC200 30/23 A3002 RMK AO2 LTG DSNT NW-E RAE43 TSB1856 OCNL LTGIC DSNT NE-SE CB DSNT NE-SE MOV NE TCU ALQDS P0000 T03000233
KTPA 181907Z VRB03KT 8SM -TSRA SCT027CB BKN035 OVC055 29/25 A3003 RMK AO2 LTG DSNT ALQDS TSB1856 OCNL LTGIC NE-SW TS NE-SW MOV NE P0000 T02890250
KTPA 181857Z VRB04KT 1SM R01L/5000VP6000FT TSRA SCT027CB BKN035 OVC055 29/24 A3004 RMK AO2 SFC VIS 2 LTG DSNT NE AND S TSB56 OCNL LTGIC NE-SW TS NE-SW MOV NE P0000 T02890244
KTPA 181853Z 00000KT 1SM R01L/4000VP6000FT VCTS +RA SCT028CB BKN037 OVC055 28/24 A3004 RMK AO2 SFC VIS 2 LTG DSNT NE AND S RAB42 SLP171 CB ALQDS MOV NE P0003 T02830244
KTPA 181753Z 26008KT 10SM SCT033CB BKN080 BKN220 32/24 A3002 RMK AO2 LTG DSNT ALQDS SLP166 CB N-S MOV NE SHRA DSNT N-NE 60001 T03220244 10322 20272 58009
KTPA 181653Z 25009KT 10SM SCT030CB BKN070 BKN220 31/24 A3003 RMK AO2 LTG DSNT ALQDS TSE27 SLP169 CB ALQDS MOV NE SHRA DSNT NE-E T03060239
KTPA 181629Z 25006KT 10SM SCT029CB BKN070 BKN220 30/24 A3004 RMK AO2 LTG DSNT ALQDS TSE27 CB ALQDS MOV NE T03000244
KTPA 181553Z 27003KT 10SM TS SCT025CB BKN070 BKN095 BKN250 29/25 A3005 RMK AO2 LTG DSNT NW-E RAE00B22E51 TSB42 SLP175 OCNL LTGIC NE-SE TS NE-SE MOV NE CB ALQDS MOV NE P0001 T02940250
KTPA 181546Z 26004KT 10SM -TSRA SCT025CB BKN070 BKN095 BKN250 29/25 A3005 RMK AO2 LTG DSNT E AND NW RAE00B22 TSB42 OCNL LTGIC NE-SE TS NE-SE MOV NE CB ALQDS MOV NE P0001 T02890250
KTPA 181453Z COR 26007KT 10SM -RA SCT026CB SCT080 BKN210 29/25 A3005 RMK AO2 LTG DSNT E-S RAB49 SLP175 CB ALQDS MOV NE VCSH N P0000 60000 T02940250 50001
KTPA 181353Z 20007KT 10SM SCT026CB BKN045 BKN080 BKN250 29/23 A3005 RMK AO2 RAE05 SLP175 CB SW-NE MOV NE SHRA DSNT N-NE AND SW P0000 T02940233
KTPA 181253Z COR 19010KT 10SM -RA SCT025 BKN045 BKN080 BKN250 29/23 A3006 RMK AO2 LTG DSNT N AND S AND SW RAE25B46 TSE1154B1157E46 SLP178 OCNL LTGIC DSNT N AND S CB DSNT S-N SHRA DSNT NW-N P0000 T02890233
KTPA 181246Z COR 22006KT 10SM -RA SCT025CB BKN045 BKN080 BKN250 29/23 A3006 RMK AO2 LTG DSNT N AND S RAE25B46 TSE1154B1157E46 OCNL LTGIC DSNT N AND S CB DSNT N AND S CB S-N SHRA DSNT NW-N P0000 T02940233
KTPA 181157Z 18006KT 10SM -TSRA SCT027CB BKN050 BKN075 BKN250 28/24 A3005 RMK AO2 LTG DSNT W TSE54B57 OCNL LTGIC VC NW-N TS VC NW-N MOV NE CB S-N MOV NE P0000 T02780239
KTPA 181153Z 18006KT 10SM -RA BKN027CB BKN050 BKN075 BKN250 28/24 A3005 RMK AO2 RAB48 TSE21 SLP174 CB S-N MOV NE P0000 60000 70019 T02780239 10289 20272 53008
KTPA 181121Z 18008KT 10SM BKN025CB BKN050 BKN200 BKN280 28/23 A3004 RMK AO2 TSE21 CB ALQDS MOV NE SHRA DSNT NE T02780233
KTPA 181053Z 20004KT 10SM TS BKN023CB BKN200 BKN300 28/24 A3003 RMK AO2 LTG DSNT N TSB22 SLP168 OCNL LTGIC VC S TS VC S MOV LTL VIRGA NE TCU ALQDS VCSH ALQDS T02780239
KTPA 181022Z 28007KT 10SM TS BKN023CB BKN280 28/23 A3003 RMK AO2 LTG DSNT S TSB22 OCNL LTGIC VC S TS VC S CIG 018V029 TCU ALQDS T02830228
KTPA 180953Z 21006KT 10SM BKN025TCU BKN280 28/24 A3003 RMK AO2 SLP167 CIG 022V027 TCU ALQDS T02830239
KTPA 180934Z 20005KT 10SM BKN025TCU BKN280 29/24 A3002 RMK AO2 TCU OHD AND N AND SE T02890239
KTPA 180753Z 22005KT 10SM FEW024TCU SCT280 28/24 A3003 RMK AO2 SLP168 TCU NE-E AND W T02830239
KTPA 180653Z COR 21006KT 10SM FEW020 SCT280 28/24 A3004 RMK AO2 SLP171 OCNL LTGIC DSNT N CB DSNT N TCU DSNT SW-NW T02830239
KTPA 180553Z 24005KT 10SM FEW020TCU BKN280 28/24 A3006 RMK AO2 SLP177 TCU SW AND W T02830239 10300 20283 58003
KTPA 180453Z 22005KT 10SM FEW022TCU BKN300 29/24 A3006 RMK AO2 SLP179 TCU SW AND NW T02890239 403280267
KTPA 180353Z 22006KT 10SM FEW025TCU BKN320 29/24 A3007 RMK AO2 SLP181 TCU W T02890239
KTPA 180253Z 23006KT 10SM FEW026 OVC320 29/24 A3006 RMK AO2 SLP180 T02940239 53004
KTPA 180153Z 23007KT 10SM FEW028 FEW090 BKN150 BKN220 29/23 A3005 RMK AO2 SLP176 T02940233
KTPA 180053Z 23007KT 10SM FEW028 SCT070 BKN150 OVC220 29/23 A3006 RMK AO2 SLP178 TCU DSNT SE-NW T02940228
KTPA 172353Z 25007KT 10SM FEW028 SCT070 BKN140 OVC200 30/23 A3005 RMK AO2 SLP176 60000 T03000233 10328 20300 55001
KTPA 172253Z 25008KT 10SM SCT029 BKN130 BKN200 31/23 A3004 RMK AO2 SLP172 T03060233
KTPA 172153Z 25008KT 10SM SCT035TCU BKN130 BKN200 31/24 A3005 RMK AO2 LTG DSNT N SLP176 CB DSNT N TCU SW-W T03110239
KTPA 172053Z 26012KT 10SM SCT037TCU SCT070 BKN200 31/24 A3005 RMK AO2 RAB29E39 SLP176 CB DSNT NE TCU E-SE AND DSNT SW P0000 60000 T03110244 56009
KTPA 171953Z 24012KT 10SM SCT042 SCT090 BKN220 33/23 A3006 RMK AO2 LTG DSNT NE AND NW SLP179 CB DSNT NE TCU DSNT NE AND S-NW T03280233
KTPA 171853Z 23012KT 10SM SCT040 SCT080 BKN230 32/23 A3007 RMK AO2 LTG DSNT NE SLP182 CB DSNT NE SHRA DSNT NE T03220233
KTPA 171753Z 24010KT 10SM SCT037CB BKN075 BKN250 32/23 A3008 RMK AO2 LTG DSNT SE SLP185 CB NE-SE MOV NE 60019 T03170233 10328 20267 58006
KTPA 171653Z 24007KT 10SM FEW037 SCT075 BKN250 32/24 A3009 RMK AO2 SLP189 CB DSNT NE AND SE T03220244
KTPA 171553Z 20005KT 10SM SCT020CB SCT050 BKN075 BKN250 31/25 A3011 RMK AO2 RAB20E50 SLP194 CB W-NE MOV NE SHRA DSNT NE P0019 T03060250
KTPA 171453Z 19010KT 10SM SCT025CB BKN250 32/25 A3010 RMK AO2 LTG DSNT NE SLP191 CB ALQDS MOV NE SHRA DSNT S T03170250 50003
KTPA 171353Z 18011KT 10SM SCT025CB BKN250 31/24 A3010 RMK AO2 SLP193 CB S MOV NE T03060239
KTPA 171338Z COR 18008KT 10SM VCTS SCT025CB BKN250 31/24 A3011 RMK AO2 CB S MOV NE T03060244
KTPA 171253Z 17006KT 10SM SCT030CB BKN250 30/24 A3010 RMK AO2 SLP192 CB S MOV NE T03000244
KTPA 171153Z 16005KT 10SM FEW028 SCT250 29/24 A3009 RMK AO2 SLP187 CB DSNT W T02890244 10289 20278 53008
KTPA 171053Z 17004KT 10SM SCT028 SCT240 28/24 A3008 RMK AO2 SLP184 TCU DSNT N AND W T02830239
KTPA 170953Z 14004KT 10SM FEW026 BKN240 28/24 A3007 RMK AO2 SLP182 T02830244
KTPA 170853Z 14003KT 10SM FEW026 BKN240 28/24 A3006 RMK AO2 SLP179 T02830244 56006